sensor_id;sensor_type;location;lat;lon;timestamp;temperature;humidity
19025;DHT22;9645;51.448;6.260;2024-01-16T00:02:01;0.50;99.90
19025;DHT22;9645;51.448;6.260;2024-01-16T00:04:27;0.50;99.90
19025;DHT22;9645;51.448;6.260;2024-01-16T00:06:55;0.50;99.90
19025;DHT22;9645;51.448;6.260;2024-01-16T00:09:22;0.50;99.90
19025;DHT22;9645;51.448;6.260;2024-01-16T00:11:50;0.40;99.90
19025;DHT22;9645;51.448;6.260;2024-01-16T00:14:17;0.50;99.90
19025;DHT22;9645;51.448;6.260;2024-01-16T00:16:45;0.50;99.90
19025;DHT22;9645;51.448;6.260;2024-01-16T00:19:14;0.40;99.90
19025;DHT22;9645;51.448;6.260;2024-01-16T00:21:42;0.50;99.90
19025;DHT22;9645;51.448;6.260;2024-01-16T00:24:11;0.50;99.90
19025;DHT22;9645;51.448;6.260;2024-01-16T00:26:38;0.50;99.90
19025;DHT22;9645;51.448;6.260;2024-01-16T00:29:05;0.50;99.90
19025;DHT22;9645;51.448;6.260;2024-01-16T00:31:32;0.50;99.90
19025;DHT22;9645;51.448;6.260;2024-01-16T00:33:59;0.40;99.90
19025;DHT22;9645;51.448;6.260;2024-01-16T00:36:28;0.40;99.90
19025;DHT22;9645;51.448;6.260;2024-01-16T00:38:55;0.40;99.90
19025;DHT22;9645;51.448;6.260;2024-01-16T00:41:22;0.40;99.90
19025;DHT22;9645;51.448;6.260;2024-01-16T00:43:49;0.40;99.90
19025;DHT22;9645;51.448;6.260;2024-01-16T00:46:16;0.40;99.90
19025;DHT22;9645;51.448;6.260;2024-01-16T00:48:44;0.30;99.90
19025;DHT22;9645;51.448;6.260;2024-01-16T00:51:13;0.20;99.90
19025;DHT22;9645;51.448;6.260;2024-01-16T00:53:42;0.30;99.90
19025;DHT22;9645;51.448;6.260;2024-01-16T00:56:09;0.30;99.90
19025;DHT22;9645;51.448;6.260;2024-01-16T00:58:38;0.30;99.90
19025;DHT22;9645;51.448;6.260;2024-01-16T01:01:05;0.40;99.90
19025;DHT22;9645;51.448;6.260;2024-01-16T01:03:32;0.50;99.90
19025;DHT22;9645;51.448;6.260;2024-01-16T01:06:00;0.40;99.90
19025;DHT22;9645;51.448;6.260;2024-01-16T01:08:27;0.40;99.90
19025;DHT22;9645;51.448;6.260;2024-01-16T01:10:55;0.50;99.90
19025;DHT22;9645;51.448;6.260;2024-01-16T01:13:24;0.50;99.90
19025;DHT22;9645;51.448;6.260;2024-01-16T01:15:51;0.50;99.90
19025;DHT22;9645;51.448;6.260;2024-01-16T01:18:18;0.60;99.90
19025;DHT22;9645;51.448;6.260;2024-01-16T01:20:45;0.60;99.90
19025;DHT22;9645;51.448;6.260;2024-01-16T01:23:12;0.50;99.90
19025;DHT22;9645;51.448;6.260;2024-01-16T01:25:39;0.60;99.90
19025;DHT22;9645;51.448;6.260;2024-01-16T01:28:07;0.60;99.90
19025;DHT22;9645;51.448;6.260;2024-01-16T01:30:34;0.60;99.90
19025;DHT22;9645;51.448;6.260;2024-01-16T01:33:01;0.50;99.90
19025;DHT22;9645;51.448;6.260;2024-01-16T01:35:29;0.50;99.90
19025;DHT22;9645;51.448;6.260;2024-01-16T01:37:56;0.60;99.90
19025;DHT22;9645;51.448;6.260;2024-01-16T01:40:23;0.50;99.90
19025;DHT22;9645;51.448;6.260;2024-01-16T01:42:50;0.50;99.90
19025;DHT22;9645;51.448;6.260;2024-01-16T01:45:20;0.50;99.90
19025;DHT22;9645;51.448;6.260;2024-01-16T01:47:47;1.00;99.90
19025;DHT22;9645;51.448;6.260;2024-01-16T01:50:15;0.50;99.90
19025;DHT22;9645;51.448;6.260;2024-01-16T01:52:43;0.50;99.90
19025;DHT22;9645;51.448;6.260;2024-01-16T01:55:12;0.50;99.90
19025;DHT22;9645;51.448;6.260;2024-01-16T01:57:40;0.60;99.90
19025;DHT22;9645;51.448;6.260;2024-01-16T02:00:09;0.60;99.90
19025;DHT22;9645;51.448;6.260;2024-01-16T02:02:37;0.60;99.90
19025;DHT22;9645;51.448;6.260;2024-01-16T02:05:04;0.60;99.90
19025;DHT22;9645;51.448;6.260;2024-01-16T02:07:31;0.60;99.90
19025;DHT22;9645;51.448;6.260;2024-01-16T02:09:59;0.60;99.90
19025;DHT22;9645;51.448;6.260;2024-01-16T02:12:27;1.20;99.90
19025;DHT22;9645;51.448;6.260;2024-01-16T02:14:54;0.60;99.90
19025;DHT22;9645;51.448;6.260;2024-01-16T02:17:21;0.50;99.90
19025;DHT22;9645;51.448;6.260;2024-01-16T02:19:49;0.50;99.90
19025;DHT22;9645;51.448;6.260;2024-01-16T02:22:20;0.50;99.90
19025;DHT22;9645;51.448;6.260;2024-01-16T02:24:49;0.50;99.90
19025;DHT22;9645;51.448;6.260;2024-01-16T02:27:17;0.50;99.90
19025;DHT22;9645;51.448;6.260;2024-01-16T02:29:44;0.60;99.90
19025;DHT22;9645;51.448;6.260;2024-01-16T02:32:12;0.60;99.90
19025;DHT22;9645;51.448;6.260;2024-01-16T02:34:40;0.70;99.90
19025;DHT22;9645;51.448;6.260;2024-01-16T02:37:06;0.70;99.90
19025;DHT22;9645;51.448;6.260;2024-01-16T02:39:33;0.70;99.90
19025;DHT22;9645;51.448;6.260;2024-01-16T02:42:02;0.70;99.90
19025;DHT22;9645;51.448;6.260;2024-01-16T02:44:29;0.70;99.90
19025;DHT22;9645;51.448;6.260;2024-01-16T02:46:56;0.60;99.90
19025;DHT22;9645;51.448;6.260;2024-01-16T02:49:23;0.60;99.90
19025;DHT22;9645;51.448;6.260;2024-01-16T02:51:51;0.60;99.90
19025;DHT22;9645;51.448;6.260;2024-01-16T02:54:19;0.70;99.90
19025;DHT22;9645;51.448;6.260;2024-01-16T02:56:46;0.70;99.90
19025;DHT22;9645;51.448;6.260;2024-01-16T02:59:15;0.70;99.90
19025;DHT22;9645;51.448;6.260;2024-01-16T03:01:42;0.60;99.90
19025;DHT22;9645;51.448;6.260;2024-01-16T03:04:09;0.60;99.90
19025;DHT22;9645;51.448;6.260;2024-01-16T03:06:37;0.60;99.90
19025;DHT22;9645;51.448;6.260;2024-01-16T03:09:04;0.60;99.90
19025;DHT22;9645;51.448;6.260;2024-01-16T03:11:32;0.60;99.90
19025;DHT22;9645;51.448;6.260;2024-01-16T03:13:59;0.60;99.90
19025;DHT22;9645;51.448;6.260;2024-01-16T03:16:27;0.60;99.90
19025;DHT22;9645;51.448;6.260;2024-01-16T03:18:54;0.60;99.90
19025;DHT22;9645;51.448;6.260;2024-01-16T03:21:21;0.50;99.90
19025;DHT22;9645;51.448;6.260;2024-01-16T03:23:48;0.50;99.90
19025;DHT22;9645;51.448;6.260;2024-01-16T03:26:15;0.50;99.90
19025;DHT22;9645;51.448;6.260;2024-01-16T03:28:42;0.50;99.90
19025;DHT22;9645;51.448;6.260;2024-01-16T03:31:12;0.50;99.90
19025;DHT22;9645;51.448;6.260;2024-01-16T03:33:41;0.50;99.90
19025;DHT22;9645;51.448;6.260;2024-01-16T03:36:08;0.50;99.90
19025;DHT22;9645;51.448;6.260;2024-01-16T03:38:36;0.50;99.90
19025;DHT22;9645;51.448;6.260;2024-01-16T03:41:03;0.50;99.90
19025;DHT22;9645;51.448;6.260;2024-01-16T03:43:32;0.60;99.90
19025;DHT22;9645;51.448;6.260;2024-01-16T03:45:59;0.60;99.90
19025;DHT22;9645;51.448;6.260;2024-01-16T03:48:26;0.60;99.90
19025;DHT22;9645;51.448;6.260;2024-01-16T03:50:55;0.60;99.90
19025;DHT22;9645;51.448;6.260;2024-01-16T03:53:22;0.60;99.90
19025;DHT22;9645;51.448;6.260;2024-01-16T03:55:49;0.60;99.90
19025;DHT22;9645;51.448;6.260;2024-01-16T03:58:16;0.50;99.90
19025;DHT22;9645;51.448;6.260;2024-01-16T04:00:43;0.60;99.90
19025;DHT22;9645;51.448;6.260;2024-01-16T04:03:10;1.30;99.90
19025;DHT22;9645;51.448;6.260;2024-01-16T04:05:38;0.60;99.90
19025;DHT22;9645;51.448;6.260;2024-01-16T04:08:07;0.60;99.90
19025;DHT22;9645;51.448;6.260;2024-01-16T04:10:34;0.70;99.90
19025;DHT22;9645;51.448;6.260;2024-01-16T04:13:01;0.70;99.90
19025;DHT22;9645;51.448;6.260;2024-01-16T04:15:28;0.60;99.90
19025;DHT22;9645;51.448;6.260;2024-01-16T04:17:55;0.60;99.90
19025;DHT22;9645;51.448;6.260;2024-01-16T04:20:22;0.70;99.90
19025;DHT22;9645;51.448;6.260;2024-01-16T04:22:48;0.70;99.90
19025;DHT22;9645;51.448;6.260;2024-01-16T04:25:17;0.60;99.90
19025;DHT22;9645;51.448;6.260;2024-01-16T04:27:43;0.60;99.90
19025;DHT22;9645;51.448;6.260;2024-01-16T04:30:11;0.60;99.90
19025;DHT22;9645;51.448;6.260;2024-01-16T04:32:38;0.60;99.90
19025;DHT22;9645;51.448;6.260;2024-01-16T04:35:05;0.60;99.90
19025;DHT22;9645;51.448;6.260;2024-01-16T04:37:32;0.50;99.90
19025;DHT22;9645;51.448;6.260;2024-01-16T04:39:59;0.40;99.90
19025;DHT22;9645;51.448;6.260;2024-01-16T04:42:27;0.40;99.90
19025;DHT22;9645;51.448;6.260;2024-01-16T04:44:54;0.40;99.90
19025;DHT22;9645;51.448;6.260;2024-01-16T04:47:21;0.40;99.90
19025;DHT22;9645;51.448;6.260;2024-01-16T04:49:48;0.40;99.90
19025;DHT22;9645;51.448;6.260;2024-01-16T04:52:15;0.40;99.90
19025;DHT22;9645;51.448;6.260;2024-01-16T04:54:42;0.40;99.90
19025;DHT22;9645;51.448;6.260;2024-01-16T04:57:11;0.40;99.90
19025;DHT22;9645;51.448;6.260;2024-01-16T04:59:39;0.40;99.90
19025;DHT22;9645;51.448;6.260;2024-01-16T05:02:07;0.40;99.90
19025;DHT22;9645;51.448;6.260;2024-01-16T05:04:37;0.40;99.90
19025;DHT22;9645;51.448;6.260;2024-01-16T05:07:04;0.30;99.90
19025;DHT22;9645;51.448;6.260;2024-01-16T05:09:31;0.30;99.90
19025;DHT22;9645;51.448;6.260;2024-01-16T05:11:58;0.30;99.90
19025;DHT22;9645;51.448;6.260;2024-01-16T05:14:25;0.30;99.90
19025;DHT22;9645;51.448;6.260;2024-01-16T05:16:53;0.20;99.90
19025;DHT22;9645;51.448;6.260;2024-01-16T05:19:20;0.20;99.90
19025;DHT22;9645;51.448;6.260;2024-01-16T05:21:47;0.20;99.90
19025;DHT22;9645;51.448;6.260;2024-01-16T05:24:14;0.20;99.90
19025;DHT22;9645;51.448;6.260;2024-01-16T05:26:41;0.10;99.90
19025;DHT22;9645;51.448;6.260;2024-01-16T05:29:09;0.10;99.90
19025;DHT22;9645;51.448;6.260;2024-01-16T05:31:39;0.00;99.90
19025;DHT22;9645;51.448;6.260;2024-01-16T05:34:09;0.00;99.90
19025;DHT22;9645;51.448;6.260;2024-01-16T05:36:36;0.00;99.90
19025;DHT22;9645;51.448;6.260;2024-01-16T05:39:03;-0.10;99.90
19025;DHT22;9645;51.448;6.260;2024-01-16T05:41:32;-0.10;99.90
19025;DHT22;9645;51.448;6.260;2024-01-16T05:44:00;-0.10;99.90
19025;DHT22;9645;51.448;6.260;2024-01-16T05:46:29;-0.10;99.90
19025;DHT22;9645;51.448;6.260;2024-01-16T05:48:56;-0.30;99.90
19025;DHT22;9645;51.448;6.260;2024-01-16T05:51:24;-0.30;99.90
19025;DHT22;9645;51.448;6.260;2024-01-16T05:53:51;-0.30;99.90
19025;DHT22;9645;51.448;6.260;2024-01-16T05:56:18;-0.30;99.90
19025;DHT22;9645;51.448;6.260;2024-01-16T05:58:46;-0.40;99.90
19025;DHT22;9645;51.448;6.260;2024-01-16T06:01:13;-0.40;99.90
19025;DHT22;9645;51.448;6.260;2024-01-16T06:03:41;-0.40;99.90
19025;DHT22;9645;51.448;6.260;2024-01-16T06:06:11;-0.40;99.90
19025;DHT22;9645;51.448;6.260;2024-01-16T06:08:39;-0.50;99.90
19025;DHT22;9645;51.448;6.260;2024-01-16T06:11:06;-0.50;99.90
19025;DHT22;9645;51.448;6.260;2024-01-16T06:13:33;-0.50;99.90
19025;DHT22;9645;51.448;6.260;2024-01-16T06:16:00;-0.50;99.90
19025;DHT22;9645;51.448;6.260;2024-01-16T06:18:27;-0.50;99.90
19025;DHT22;9645;51.448;6.260;2024-01-16T06:20:54;-0.60;99.90
19025;DHT22;9645;51.448;6.260;2024-01-16T06:23:21;-0.60;99.90
19025;DHT22;9645;51.448;6.260;2024-01-16T06:25:50;-0.60;99.90
19025;DHT22;9645;51.448;6.260;2024-01-16T06:28:17;-0.60;99.90
19025;DHT22;9645;51.448;6.260;2024-01-16T06:30:44;-0.60;99.90
19025;DHT22;9645;51.448;6.260;2024-01-16T06:33:13;-0.70;99.90
19025;DHT22;9645;51.448;6.260;2024-01-16T06:35:40;-0.70;99.90
19025;DHT22;9645;51.448;6.260;2024-01-16T06:38:07;-0.70;99.90
19025;DHT22;9645;51.448;6.260;2024-01-16T06:40:34;-0.80;99.90
19025;DHT22;9645;51.448;6.260;2024-01-16T06:43:03;-0.80;99.90
19025;DHT22;9645;51.448;6.260;2024-01-16T06:45:31;-0.80;99.90
19025;DHT22;9645;51.448;6.260;2024-01-16T06:47:58;-0.80;99.90
19025;DHT22;9645;51.448;6.260;2024-01-16T06:50:25;-0.90;99.90
19025;DHT22;9645;51.448;6.260;2024-01-16T06:52:52;-0.90;99.90
19025;DHT22;9645;51.448;6.260;2024-01-16T06:55:18;-0.90;99.90
19025;DHT22;9645;51.448;6.260;2024-01-16T06:57:46;-0.90;99.90
19025;DHT22;9645;51.448;6.260;2024-01-16T07:00:16;-0.90;99.90
19025;DHT22;9645;51.448;6.260;2024-01-16T07:02:43;-0.90;99.90
19025;DHT22;9645;51.448;6.260;2024-01-16T07:05:11;-0.90;99.90
19025;DHT22;9645;51.448;6.260;2024-01-16T07:07:38;-0.90;99.90
19025;DHT22;9645;51.448;6.260;2024-01-16T07:10:05;-0.90;99.90
19025;DHT22;9645;51.448;6.260;2024-01-16T07:12:34;-0.90;99.90
19025;DHT22;9645;51.448;6.260;2024-01-16T07:15:03;-0.90;99.90
19025;DHT22;9645;51.448;6.260;2024-01-16T07:17:33;-0.90;99.90
19025;DHT22;9645;51.448;6.260;2024-01-16T07:20:00;-0.90;99.90
19025;DHT22;9645;51.448;6.260;2024-01-16T07:22:27;-0.90;99.90
19025;DHT22;9645;51.448;6.260;2024-01-16T07:24:54;-0.90;99.90
19025;DHT22;9645;51.448;6.260;2024-01-16T07:27:21;-0.90;99.90
19025;DHT22;9645;51.448;6.260;2024-01-16T07:29:49;-0.40;99.00
19025;DHT22;9645;51.448;6.260;2024-01-16T07:32:16;-0.90;96.00
19025;DHT22;9645;51.448;6.260;2024-01-16T07:34:44;-0.90;94.30
19025;DHT22;9645;51.448;6.260;2024-01-16T07:37:12;-0.80;92.60
19025;DHT22;9645;51.448;6.260;2024-01-16T07:39:41;-0.80;85.70
19025;DHT22;9645;51.448;6.260;2024-01-16T07:42:08;-0.80;72.00
19025;DHT22;9645;51.448;6.260;2024-01-16T07:44:35;-0.80;59.70
19025;DHT22;9645;51.448;6.260;2024-01-16T07:47:02;-0.80;52.30
19025;DHT22;9645;51.448;6.260;2024-01-16T07:49:29;-0.80;42.70
19025;DHT22;9645;51.448;6.260;2024-01-16T07:51:58;-0.80;34.10
19025;DHT22;9645;51.448;6.260;2024-01-16T07:54:25;-0.70;28.20
19025;DHT22;9645;51.448;6.260;2024-01-16T07:56:52;-0.80;12.40
19025;DHT22;9645;51.448;6.260;2024-01-16T07:59:19;-0.80;1.20
19025;DHT22;9645;51.448;6.260;2024-01-16T08:01:46;-0.70;1.00
19025;DHT22;9645;51.448;6.260;2024-01-16T08:04:13;-0.80;1.00
19025;DHT22;9645;51.448;6.260;2024-01-16T08:06:40;-0.70;1.00
19025;DHT22;9645;51.448;6.260;2024-01-16T08:09:10;-0.70;1.00
19025;DHT22;9645;51.448;6.260;2024-01-16T08:11:38;-0.80;1.00
19025;DHT22;9645;51.448;6.260;2024-01-16T08:14:05;-0.70;1.00
19025;DHT22;9645;51.448;6.260;2024-01-16T08:16:32;-0.70;1.00
19025;DHT22;9645;51.448;6.260;2024-01-16T08:18:59;-0.70;1.00
19025;DHT22;9645;51.448;6.260;2024-01-16T08:21:26;-0.70;1.00
19025;DHT22;9645;51.448;6.260;2024-01-16T08:23:53;-0.30;1.00
19025;DHT22;9645;51.448;6.260;2024-01-16T08:26:21;-0.60;1.00
19025;DHT22;9645;51.448;6.260;2024-01-16T08:28:48;-0.60;1.00
19025;DHT22;9645;51.448;6.260;2024-01-16T08:31:17;-0.60;1.00
19025;DHT22;9645;51.448;6.260;2024-01-16T08:33:44;-0.50;1.00
19025;DHT22;9645;51.448;6.260;2024-01-16T08:36:13;-0.60;1.00
19025;DHT22;9645;51.448;6.260;2024-01-16T08:38:41;-0.50;1.00
19025;DHT22;9645;51.448;6.260;2024-01-16T08:41:08;-0.50;1.00
19025;DHT22;9645;51.448;6.260;2024-01-16T08:43:36;-0.50;1.00
19025;DHT22;9645;51.448;6.260;2024-01-16T08:46:03;-0.50;1.00
19025;DHT22;9645;51.448;6.260;2024-01-16T08:48:30;-0.50;1.00
19025;DHT22;9645;51.448;6.260;2024-01-16T08:50:58;-0.50;1.00
19025;DHT22;9645;51.448;6.260;2024-01-16T08:53:25;-0.50;1.00
19025;DHT22;9645;51.448;6.260;2024-01-16T08:55:52;-0.40;1.00
19025;DHT22;9645;51.448;6.260;2024-01-16T08:58:20;-0.40;1.00
19025;DHT22;9645;51.448;6.260;2024-01-16T09:00:48;-0.40;1.00
19025;DHT22;9645;51.448;6.260;2024-01-16T09:03:15;-0.30;1.00
19025;DHT22;9645;51.448;6.260;2024-01-16T09:05:43;-0.30;1.00
19025;DHT22;9645;51.448;6.260;2024-01-16T09:08:10;-0.30;1.00
19025;DHT22;9645;51.448;6.260;2024-01-16T09:10:37;-0.30;1.00
19025;DHT22;9645;51.448;6.260;2024-01-16T09:13:04;-0.20;1.00
19025;DHT22;9645;51.448;6.260;2024-01-16T09:15:31;-0.20;1.00
19025;DHT22;9645;51.448;6.260;2024-01-16T09:17:59;-0.20;1.00
19025;DHT22;9645;51.448;6.260;2024-01-16T09:20:27;-0.20;1.00
19025;DHT22;9645;51.448;6.260;2024-01-16T09:22:54;-0.20;1.00
19025;DHT22;9645;51.448;6.260;2024-01-16T09:25:21;-0.10;1.00
19025;DHT22;9645;51.448;6.260;2024-01-16T09:27:50;-0.10;1.00
19025;DHT22;9645;51.448;6.260;2024-01-16T09:30:17;-0.10;1.00
19025;DHT22;9645;51.448;6.260;2024-01-16T09:32:44;0.00;1.00
19025;DHT22;9645;51.448;6.260;2024-01-16T09:35:14;0.10;1.00
19025;DHT22;9645;51.448;6.260;2024-01-16T09:37:41;0.10;1.00
19025;DHT22;9645;51.448;6.260;2024-01-16T09:40:09;0.20;1.00
19025;DHT22;9645;51.448;6.260;2024-01-16T09:42:36;0.30;1.00
19025;DHT22;9645;51.448;6.260;2024-01-16T09:45:03;0.30;1.00
19025;DHT22;9645;51.448;6.260;2024-01-16T09:47:31;0.40;1.00
19025;DHT22;9645;51.448;6.260;2024-01-16T09:49:59;0.40;99.90
19025;DHT22;9645;51.448;6.260;2024-01-16T09:52:29;0.50;99.90
19025;DHT22;9645;51.448;6.260;2024-01-16T09:54:56;0.60;99.90
19025;DHT22;9645;51.448;6.260;2024-01-16T09:57:25;0.60;99.90
19025;DHT22;9645;51.448;6.260;2024-01-16T09:59:52;0.70;99.90
19025;DHT22;9645;51.448;6.260;2024-01-16T10:02:20;0.70;99.90
19025;DHT22;9645;51.448;6.260;2024-01-16T10:04:48;1.30;99.90
19025;DHT22;9645;51.448;6.260;2024-01-16T10:07:16;1.20;99.90
19025;DHT22;9645;51.448;6.260;2024-01-16T10:09:45;1.40;1.00
19025;DHT22;9645;51.448;6.260;2024-01-16T10:12:12;1.70;1.00
19025;DHT22;9645;51.448;6.260;2024-01-16T10:14:41;2.00;1.00
19025;DHT22;9645;51.448;6.260;2024-01-16T10:17:09;2.30;1.00
19025;DHT22;9645;51.448;6.260;2024-01-16T10:19:48;2.80;99.90
19025;DHT22;9645;51.448;6.260;2024-01-16T10:22:20;3.20;1.00
19025;DHT22;9645;51.448;6.260;2024-01-16T10:24:49;3.60;1.00
19025;DHT22;9645;51.448;6.260;2024-01-16T10:27:16;3.70;99.90
19025;DHT22;9645;51.448;6.260;2024-01-16T10:29:54;3.40;89.40
19025;DHT22;9645;51.448;6.260;2024-01-16T10:32:29;3.20;1.00
19025;DHT22;9645;51.448;6.260;2024-01-16T10:35:03;3.10;1.00
19025;DHT22;9645;51.448;6.260;2024-01-16T10:37:31;3.20;1.00
19025;DHT22;9645;51.448;6.260;2024-01-16T10:40:08;3.90;1.00
19025;DHT22;9645;51.448;6.260;2024-01-16T10:42:36;4.30;99.90
19025;DHT22;9645;51.448;6.260;2024-01-16T10:45:05;4.90;1.00
19025;DHT22;9645;51.448;6.260;2024-01-16T10:47:32;5.70;1.00
19025;DHT22;9645;51.448;6.260;2024-01-16T10:50:03;6.30;99.90
19025;DHT22;9645;51.448;6.260;2024-01-16T10:52:33;7.20;1.00
19025;DHT22;9645;51.448;6.260;2024-01-16T10:55:03;7.60;1.00
19025;DHT22;9645;51.448;6.260;2024-01-16T10:57:37;8.20;1.00
19025;DHT22;9645;51.448;6.260;2024-01-16T11:00:09;8.20;1.00
19025;DHT22;9645;51.448;6.260;2024-01-16T11:02:47;8.70;1.00
19025;DHT22;9645;51.448;6.260;2024-01-16T11:05:17;9.00;1.00
19025;DHT22;9645;51.448;6.260;2024-01-16T11:07:44;9.00;1.00
19025;DHT22;9645;51.448;6.260;2024-01-16T11:10:12;9.90;1.00
19025;DHT22;9645;51.448;6.260;2024-01-16T11:12:50;10.50;1.00
19025;DHT22;9645;51.448;6.260;2024-01-16T11:15:18;10.40;1.00
19025;DHT22;9645;51.448;6.260;2024-01-16T11:17:46;11.40;1.00
19025;DHT22;9645;51.448;6.260;2024-01-16T11:20:14;11.90;99.90
19025;DHT22;9645;51.448;6.260;2024-01-16T11:22:43;11.40;99.90
19025;DHT22;9645;51.448;6.260;2024-01-16T11:25:11;11.60;99.90
19025;DHT22;9645;51.448;6.260;2024-01-16T11:27:40;11.80;99.90
19025;DHT22;9645;51.448;6.260;2024-01-16T11:30:10;11.90;99.90
19025;DHT22;9645;51.448;6.260;2024-01-16T11:32:38;11.80;99.90
19025;DHT22;9645;51.448;6.260;2024-01-16T11:35:07;11.90;99.90
19025;DHT22;9645;51.448;6.260;2024-01-16T11:37:35;12.10;99.90
19025;DHT22;9645;51.448;6.260;2024-01-16T11:40:29;11.80;99.90
19025;DHT22;9645;51.448;6.260;2024-01-16T11:42:58;12.20;99.90
19025;DHT22;9645;51.448;6.260;2024-01-16T11:45:54;12.80;99.90
19025;DHT22;9645;51.448;6.260;2024-01-16T11:48:21;13.50;99.90
19025;DHT22;9645;51.448;6.260;2024-01-16T11:50:48;13.90;99.90
19025;DHT22;9645;51.448;6.260;2024-01-16T11:53:35;13.60;99.90
19025;DHT22;9645;51.448;6.260;2024-01-16T11:56:34;13.10;99.90
19025;DHT22;9645;51.448;6.260;2024-01-16T12:02:14;12.10;99.90
19025;DHT22;9645;51.448;6.260;2024-01-16T12:04:42;11.90;99.90
19025;DHT22;9645;51.448;6.260;2024-01-16T12:07:09;12.00;99.90
19025;DHT22;9645;51.448;6.260;2024-01-16T12:09:36;12.40;99.90
19025;DHT22;9645;51.448;6.260;2024-01-16T12:12:04;12.30;99.90
19025;DHT22;9645;51.448;6.260;2024-01-16T12:14:31;11.90;99.90
19025;DHT22;9645;51.448;6.260;2024-01-16T12:17:12;10.80;99.90
19025;DHT22;9645;51.448;6.260;2024-01-16T12:19:40;10.50;99.90
19025;DHT22;9645;51.448;6.260;2024-01-16T12:22:08;9.40;99.90
19025;DHT22;9645;51.448;6.260;2024-01-16T12:24:36;8.40;99.90
19025;DHT22;9645;51.448;6.260;2024-01-16T12:27:03;7.80;99.90
19025;DHT22;9645;51.448;6.260;2024-01-16T12:29:31;7.50;1.00
19025;DHT22;9645;51.448;6.260;2024-01-16T12:32:05;7.90;1.00
19025;DHT22;9645;51.448;6.260;2024-01-16T12:34:34;8.90;99.90
19025;DHT22;9645;51.448;6.260;2024-01-16T12:37:05;9.60;99.90
19025;DHT22;9645;51.448;6.260;2024-01-16T12:39:33;10.30;99.90
19025;DHT22;9645;51.448;6.260;2024-01-16T12:42:01;9.10;99.90
19025;DHT22;9645;51.448;6.260;2024-01-16T12:44:28;7.70;99.90
19025;DHT22;9645;51.448;6.260;2024-01-16T12:46:56;6.70;1.00
19025;DHT22;9645;51.448;6.260;2024-01-16T12:49:23;5.50;1.00
19025;DHT22;9645;51.448;6.260;2024-01-16T12:51:52;4.80;1.00
19025;DHT22;9645;51.448;6.260;2024-01-16T12:54:39;4.30;79.70
19025;DHT22;9645;51.448;6.260;2024-01-16T12:57:08;3.80;1.00
19025;DHT22;9645;51.448;6.260;2024-01-16T12:59:39;3.60;1.00
19025;DHT22;9645;51.448;6.260;2024-01-16T13:02:07;3.40;1.00
19025;DHT22;9645;51.448;6.260;2024-01-16T13:04:34;3.20;1.00
19025;DHT22;9645;51.448;6.260;2024-01-16T13:07:03;3.00;15.80
19025;DHT22;9645;51.448;6.260;2024-01-16T13:09:30;2.90;99.90
19025;DHT22;9645;51.448;6.260;2024-01-16T13:11:57;2.90;99.90
19025;DHT22;9645;51.448;6.260;2024-01-16T13:14:25;2.60;99.90
19025;DHT22;9645;51.448;6.260;2024-01-16T13:16:53;2.40;1.00
19025;DHT22;9645;51.448;6.260;2024-01-16T13:19:21;2.40;1.00
19025;DHT22;9645;51.448;6.260;2024-01-16T13:21:48;2.40;1.00
19025;DHT22;9645;51.448;6.260;2024-01-16T13:24:17;2.40;1.00
19025;DHT22;9645;51.448;6.260;2024-01-16T13:26:47;2.30;99.90
19025;DHT22;9645;51.448;6.260;2024-01-16T13:29:14;2.30;99.90
19025;DHT22;9645;51.448;6.260;2024-01-16T13:31:41;2.20;99.90
19025;DHT22;9645;51.448;6.260;2024-01-16T13:34:09;2.20;99.90
19025;DHT22;9645;51.448;6.260;2024-01-16T13:36:36;2.10;1.00
19025;DHT22;9645;51.448;6.260;2024-01-16T13:39:02;1.50;1.00
19025;DHT22;9645;51.448;6.260;2024-01-16T13:41:39;2.10;99.90
19025;DHT22;9645;51.448;6.260;2024-01-16T13:44:06;1.90;99.90
19025;DHT22;9645;51.448;6.260;2024-01-16T13:46:33;1.90;99.90
19025;DHT22;9645;51.448;6.260;2024-01-16T13:49:01;1.80;1.00
19025;DHT22;9645;51.448;6.260;2024-01-16T13:51:28;1.80;1.00
19025;DHT22;9645;51.448;6.260;2024-01-16T13:53:55;1.80;1.00
19025;DHT22;9645;51.448;6.260;2024-01-16T13:56:22;1.80;1.00
19025;DHT22;9645;51.448;6.260;2024-01-16T13:58:51;1.70;1.00
19025;DHT22;9645;51.448;6.260;2024-01-16T14:01:18;1.60;1.00
19025;DHT22;9645;51.448;6.260;2024-01-16T14:03:45;1.60;1.00
19025;DHT22;9645;51.448;6.260;2024-01-16T14:06:13;1.60;1.00
19025;DHT22;9645;51.448;6.260;2024-01-16T14:08:41;1.60;1.00
19025;DHT22;9645;51.448;6.260;2024-01-16T14:11:08;1.60;1.00
19025;DHT22;9645;51.448;6.260;2024-01-16T14:13:35;1.50;83.00
19025;DHT22;9645;51.448;6.260;2024-01-16T14:16:04;1.50;99.90
19025;DHT22;9645;51.448;6.260;2024-01-16T14:18:34;1.40;1.00
19025;DHT22;9645;51.448;6.260;2024-01-16T14:21:01;1.40;1.00
19025;DHT22;9645;51.448;6.260;2024-01-16T14:23:30;1.40;1.00
19025;DHT22;9645;51.448;6.260;2024-01-16T14:25:57;1.40;99.90
19025;DHT22;9645;51.448;6.260;2024-01-16T14:28:25;1.40;91.50
19025;DHT22;9645;51.448;6.260;2024-01-16T14:30:52;1.40;1.00
19025;DHT22;9645;51.448;6.260;2024-01-16T14:33:21;1.40;1.00
19025;DHT22;9645;51.448;6.260;2024-01-16T14:35:48;1.40;99.90
19025;DHT22;9645;51.448;6.260;2024-01-16T14:38:15;1.30;54.90
19025;DHT22;9645;51.448;6.260;2024-01-16T14:40:42;1.30;1.00
19025;DHT22;9645;51.448;6.260;2024-01-16T14:43:09;1.20;1.00
19025;DHT22;9645;51.448;6.260;2024-01-16T14:45:36;1.30;1.00
19025;DHT22;9645;51.448;6.260;2024-01-16T14:48:04;1.20;77.00
19025;DHT22;9645;51.448;6.260;2024-01-16T14:50:33;1.20;99.90
19025;DHT22;9645;51.448;6.260;2024-01-16T14:53:00;1.80;99.90
19025;DHT22;9645;51.448;6.260;2024-01-16T14:55:28;1.00;99.90
19025;DHT22;9645;51.448;6.260;2024-01-16T14:57:55;1.00;88.20
19025;DHT22;9645;51.448;6.260;2024-01-16T15:00:25;1.00;99.90
19025;DHT22;9645;51.448;6.260;2024-01-16T15:02:54;1.00;99.90
19025;DHT22;9645;51.448;6.260;2024-01-16T15:05:21;0.90;99.90
19025;DHT22;9645;51.448;6.260;2024-01-16T15:07:53;0.90;1.00
19025;DHT22;9645;51.448;6.260;2024-01-16T15:10:20;0.80;1.00
19025;DHT22;9645;51.448;6.260;2024-01-16T15:12:47;0.80;99.90
19025;DHT22;9645;51.448;6.260;2024-01-16T15:15:15;0.70;99.90
19025;DHT22;9645;51.448;6.260;2024-01-16T15:17:44;0.70;99.90
19025;DHT22;9645;51.448;6.260;2024-01-16T15:20:11;0.60;99.90
19025;DHT22;9645;51.448;6.260;2024-01-16T15:22:39;0.60;99.90
19025;DHT22;9645;51.448;6.260;2024-01-16T15:25:08;0.60;99.90
19025;DHT22;9645;51.448;6.260;2024-01-16T15:27:35;0.50;1.00
19025;DHT22;9645;51.448;6.260;2024-01-16T15:30:02;0.50;1.00
19025;DHT22;9645;51.448;6.260;2024-01-16T15:32:29;0.30;1.00
19025;DHT22;9645;51.448;6.260;2024-01-16T15:34:57;0.30;68.30
19025;DHT22;9645;51.448;6.260;2024-01-16T15:37:25;0.30;99.90
19025;DHT22;9645;51.448;6.260;2024-01-16T15:39:52;0.20;99.90
19025;DHT22;9645;51.448;6.260;2024-01-16T15:42:20;0.10;99.90
19025;DHT22;9645;51.448;6.260;2024-01-16T15:44:47;0.20;1.00
19025;DHT22;9645;51.448;6.260;2024-01-16T15:47:14;0.10;1.00
19025;DHT22;9645;51.448;6.260;2024-01-16T15:49:41;0.10;1.00
19025;DHT22;9645;51.448;6.260;2024-01-16T15:52:08;0.10;1.00
19025;DHT22;9645;51.448;6.260;2024-01-16T15:54:35;0.10;1.00
19025;DHT22;9645;51.448;6.260;2024-01-16T15:57:02;0.10;1.00
19025;DHT22;9645;51.448;6.260;2024-01-16T15:59:31;0.00;1.00
19025;DHT22;9645;51.448;6.260;2024-01-16T16:01:58;-0.10;1.00
19025;DHT22;9645;51.448;6.260;2024-01-16T16:04:25;-0.10;99.90
19025;DHT22;9645;51.448;6.260;2024-01-16T16:06:54;-0.10;99.90
19025;DHT22;9645;51.448;6.260;2024-01-16T16:09:21;-0.20;99.90
19025;DHT22;9645;51.448;6.260;2024-01-16T16:11:48;-0.20;15.70